Accueil
METAR-TAF:

METAR-TAF

Aéroports :

Base aérienne 126 Solenzara

Solenzara, France

latitude: 41-55N, longitude: 009-24E, altitude: 8 m

Observation

Le bulletin a été fait il y a 41 minutes, à 13:30 UTC
Vent 4 kt de sud/sud-est, variant entre est/sud-est et sud/sud-ouest
Température 16°C
Humidité 55%
Pression 1023 hPa
Visibilité 10 km ou plus
Nuages fragmentés à une hauteur de 4400 ft

METAR: LFKS 241330Z AUTO 15004KT 120V200 9999 BKN044 16/07 Q1023

Heure: 15:11 (14:11 UTC)

Prévision

Le bulletin a été fait il y a 6 heures et 11 minutes, à 08:00 UTC
Prévision valable du 24 à 09 UTC au 25 à 09 UTC
Vent 5 kt de nord
Visibilité 10 km ou plus
Quelques nuages à une hauteur de 4000 ft
Temporairement
du 24 à 09 UTC au 24 à 16 UTC
Vent 15 kt de nord avec des rafales jusqu'à 25 kt

TAF: LFKS 240800Z 2409/2509 35005KT 9999 FEW040 TEMPO 2409/2416 35015G25KT

Observations et prévisions météorologiques de plus de 4000 aéroports (messages METAR et TAF).

Les stations disponibles sont représentées par des disques jaunes et rouges sur la carte.

Passer la souris dessus pour voir le nom de la station.

Cliquer dessus pour voir les observations et prévisions météorologiques.

Pour changer de carte: cliquez sur les boutons verts avec une croix noire pour zoomer, sur le bouton vert avec un tiret pour effectuer un zoom arrière, ou sur les flèches vertes pour les cartes adjacentes.


METAR-TAF: